sensor_id;sensor_type;location;lat;lon;timestamp;P1;durP1;ratioP1;P2;durP2;ratioP2
32138;SDS011;18644;48.700;9.210;2023-03-01T00:01:06;11.60;;;7.20;;
32138;SDS011;18644;48.700;9.210;2023-03-01T00:03:35;13.98;;;7.72;;
32138;SDS011;18644;48.700;9.210;2023-03-01T00:06:04;11.80;;;7.18;;
32138;SDS011;18644;48.700;9.210;2023-03-01T00:08:32;13.23;;;8.07;;
32138;SDS011;18644;48.700;9.210;2023-03-01T00:11:01;11.00;;;6.70;;
32138;SDS011;18644;48.700;9.210;2023-03-01T00:13:30;14.43;;;7.57;;
32138;SDS011;18644;48.700;9.210;2023-03-01T00:15:57;11.70;;;7.40;;
32138;SDS011;18644;48.700;9.210;2023-03-01T00:18:24;11.55;;;6.90;;
32138;SDS011;18644;48.700;9.210;2023-03-01T00:20:51;12.60;;;7.18;;
32138;SDS011;18644;48.700;9.210;2023-03-01T00:23:21;10.02;;;6.65;;
32138;SDS011;18644;48.700;9.210;2023-03-01T00:25:48;14.40;;;7.15;;
32138;SDS011;18644;48.700;9.210;2023-03-01T00:28:15;12.93;;;6.82;;
32138;SDS011;18644;48.700;9.210;2023-03-01T00:30:43;11.63;;;6.60;;
32138;SDS011;18644;48.700;9.210;2023-03-01T00:33:10;13.95;;;7.80;;
32138;SDS011;18644;48.700;9.210;2023-03-01T00:35:37;12.95;;;7.82;;
32138;SDS011;18644;48.700;9.210;2023-03-01T00:38:04;14.10;;;7.82;;
32138;SDS011;18644;48.700;9.210;2023-03-01T00:40:33;11.48;;;7.63;;
32138;SDS011;18644;48.700;9.210;2023-03-01T00:43:01;12.30;;;7.30;;
32138;SDS011;18644;48.700;9.210;2023-03-01T00:45:29;15.30;;;9.20;;
32138;SDS011;18644;48.700;9.210;2023-03-01T00:47:56;11.80;;;7.95;;
32138;SDS011;18644;48.700;9.210;2023-03-01T00:50:23;15.10;;;7.38;;
32138;SDS011;18644;48.700;9.210;2023-03-01T00:52:52;10.65;;;6.85;;
32138;SDS011;18644;48.700;9.210;2023-03-01T00:55:19;12.38;;;7.28;;
32138;SDS011;18644;48.700;9.210;2023-03-01T00:57:48;10.00;;;6.57;;
32138;SDS011;18644;48.700;9.210;2023-03-01T01:00:15;13.25;;;7.13;;
32138;SDS011;18644;48.700;9.210;2023-03-01T01:02:43;11.93;;;7.07;;
32138;SDS011;18644;48.700;9.210;2023-03-01T01:05:10;11.93;;;7.55;;
32138;SDS011;18644;48.700;9.210;2023-03-01T01:07:37;13.50;;;7.65;;
32138;SDS011;18644;48.700;9.210;2023-03-01T01:10:05;11.85;;;6.75;;
32138;SDS011;18644;48.700;9.210;2023-03-01T01:12:33;12.48;;;7.25;;
32138;SDS011;18644;48.700;9.210;2023-03-01T01:15:02;9.55;;;6.45;;
32138;SDS011;18644;48.700;9.210;2023-03-01T01:17:29;11.15;;;7.28;;
32138;SDS011;18644;48.700;9.210;2023-03-01T01:19:56;13.32;;;7.50;;
32138;SDS011;18644;48.700;9.210;2023-03-01T01:22:23;12.80;;;7.40;;
32138;SDS011;18644;48.700;9.210;2023-03-01T01:24:50;14.52;;;8.30;;
32138;SDS011;18644;48.700;9.210;2023-03-01T01:27:17;12.30;;;7.25;;
32138;SDS011;18644;48.700;9.210;2023-03-01T01:29:43;12.65;;;7.57;;
32138;SDS011;18644;48.700;9.210;2023-03-01T01:32:11;14.00;;;7.97;;
32138;SDS011;18644;48.700;9.210;2023-03-01T01:34:38;10.63;;;7.10;;
32138;SDS011;18644;48.700;9.210;2023-03-01T01:37:05;11.30;;;7.15;;
32138;SDS011;18644;48.700;9.210;2023-03-01T01:39:32;13.18;;;7.50;;
32138;SDS011;18644;48.700;9.210;2023-03-01T01:42:00;11.70;;;7.25;;
32138;SDS011;18644;48.700;9.210;2023-03-01T01:44:27;12.63;;;7.72;;
32138;SDS011;18644;48.700;9.210;2023-03-01T01:46:55;12.95;;;8.02;;
32138;SDS011;18644;48.700;9.210;2023-03-01T01:49:30;12.63;;;7.15;;
32138;SDS011;18644;48.700;9.210;2023-03-01T01:52:04;10.32;;;6.63;;
32138;SDS011;18644;48.700;9.210;2023-03-01T01:54:38;11.23;;;6.53;;
32138;SDS011;18644;48.700;9.210;2023-03-01T01:57:10;12.50;;;6.93;;
32138;SDS011;18644;48.700;9.210;2023-03-01T01:59:41;12.65;;;7.10;;
32138;SDS011;18644;48.700;9.210;2023-03-01T02:02:15;10.98;;;6.55;;
32138;SDS011;18644;48.700;9.210;2023-03-01T02:04:44;13.60;;;7.97;;
32138;SDS011;18644;48.700;9.210;2023-03-01T02:07:13;10.68;;;6.95;;
32138;SDS011;18644;48.700;9.210;2023-03-01T02:09:43;13.75;;;8.48;;
32138;SDS011;18644;48.700;9.210;2023-03-01T02:12:13;13.88;;;8.32;;
32138;SDS011;18644;48.700;9.210;2023-03-01T02:14:42;13.35;;;7.07;;
32138;SDS011;18644;48.700;9.210;2023-03-01T02:17:09;11.82;;;6.93;;
32138;SDS011;18644;48.700;9.210;2023-03-01T02:19:40;12.40;;;7.13;;
32138;SDS011;18644;48.700;9.210;2023-03-01T02:22:22;12.00;;;7.60;;
32138;SDS011;18644;48.700;9.210;2023-03-01T02:24:55;14.27;;;7.75;;
32138;SDS011;18644;48.700;9.210;2023-03-01T02:27:37;14.82;;;8.75;;
32138;SDS011;18644;48.700;9.210;2023-03-01T02:30:15;13.48;;;8.27;;
32138;SDS011;18644;48.700;9.210;2023-03-01T02:32:43;14.93;;;7.55;;
32138;SDS011;18644;48.700;9.210;2023-03-01T02:35:10;14.00;;;8.23;;
32138;SDS011;18644;48.700;9.210;2023-03-01T02:37:41;11.30;;;7.63;;
32138;SDS011;18644;48.700;9.210;2023-03-01T02:40:10;15.05;;;8.63;;
32138;SDS011;18644;48.700;9.210;2023-03-01T02:42:43;13.95;;;7.93;;
32138;SDS011;18644;48.700;9.210;2023-03-01T02:45:18;13.90;;;8.25;;
32138;SDS011;18644;48.700;9.210;2023-03-01T02:47:44;13.10;;;8.07;;
32138;SDS011;18644;48.700;9.210;2023-03-01T02:50:18;14.13;;;8.82;;
32138;SDS011;18644;48.700;9.210;2023-03-01T02:53:00;16.02;;;8.98;;
32138;SDS011;18644;48.700;9.210;2023-03-01T02:55:32;14.68;;;8.75;;
32138;SDS011;18644;48.700;9.210;2023-03-01T02:57:59;15.80;;;8.13;;
32138;SDS011;18644;48.700;9.210;2023-03-01T03:00:31;14.73;;;8.75;;
32138;SDS011;18644;48.700;9.210;2023-03-01T03:03:05;14.43;;;8.88;;
32138;SDS011;18644;48.700;9.210;2023-03-01T03:05:33;16.73;;;8.93;;
32138;SDS011;18644;48.700;9.210;2023-03-01T03:08:01;13.07;;;7.88;;
32138;SDS011;18644;48.700;9.210;2023-03-01T03:10:30;15.68;;;8.90;;
32138;SDS011;18644;48.700;9.210;2023-03-01T03:13:02;15.57;;;8.40;;
32138;SDS011;18644;48.700;9.210;2023-03-01T03:15:32;12.88;;;7.95;;
32138;SDS011;18644;48.700;9.210;2023-03-01T03:18:01;12.70;;;8.35;;
32138;SDS011;18644;48.700;9.210;2023-03-01T03:20:30;14.15;;;8.55;;
32138;SDS011;18644;48.700;9.210;2023-03-01T03:22:57;14.23;;;8.95;;
32138;SDS011;18644;48.700;9.210;2023-03-01T03:25:25;14.65;;;8.20;;
32138;SDS011;18644;48.700;9.210;2023-03-01T03:27:54;17.08;;;9.27;;
32138;SDS011;18644;48.700;9.210;2023-03-01T03:30:23;13.52;;;8.95;;
32138;SDS011;18644;48.700;9.210;2023-03-01T03:32:54;19.30;;;10.15;;
32138;SDS011;18644;48.700;9.210;2023-03-01T03:35:22;13.65;;;8.60;;
32138;SDS011;18644;48.700;9.210;2023-03-01T03:37:51;14.45;;;8.55;;
32138;SDS011;18644;48.700;9.210;2023-03-01T03:40:28;14.88;;;8.77;;
32138;SDS011;18644;48.700;9.210;2023-03-01T03:42:57;13.77;;;8.65;;
32138;SDS011;18644;48.700;9.210;2023-03-01T03:45:24;18.85;;;9.45;;
32138;SDS011;18644;48.700;9.210;2023-03-01T03:47:51;16.23;;;9.27;;
32138;SDS011;18644;48.700;9.210;2023-03-01T03:50:20;17.10;;;9.50;;
32138;SDS011;18644;48.700;9.210;2023-03-01T03:52:48;16.67;;;9.73;;
32138;SDS011;18644;48.700;9.210;2023-03-01T03:55:15;18.35;;;10.32;;
32138;SDS011;18644;48.700;9.210;2023-03-01T03:57:44;13.50;;;8.80;;
32138;SDS011;18644;48.700;9.210;2023-03-01T04:00:16;13.60;;;8.63;;
32138;SDS011;18644;48.700;9.210;2023-03-01T04:02:45;15.82;;;9.02;;
32138;SDS011;18644;48.700;9.210;2023-03-01T04:05:15;14.38;;;9.20;;
32138;SDS011;18644;48.700;9.210;2023-03-01T04:07:44;16.17;;;9.45;;
32138;SDS011;18644;48.700;9.210;2023-03-01T04:10:13;14.30;;;8.75;;
32138;SDS011;18644;48.700;9.210;2023-03-01T04:12:42;13.55;;;9.60;;
32138;SDS011;18644;48.700;9.210;2023-03-01T04:15:10;15.25;;;9.05;;
32138;SDS011;18644;48.700;9.210;2023-03-01T04:17:40;16.38;;;8.80;;
32138;SDS011;18644;48.700;9.210;2023-03-01T04:20:10;15.93;;;9.00;;
32138;SDS011;18644;48.700;9.210;2023-03-01T04:22:40;15.07;;;8.88;;
32138;SDS011;18644;48.700;9.210;2023-03-01T04:25:07;13.73;;;9.00;;
32138;SDS011;18644;48.700;9.210;2023-03-01T04:27:39;16.75;;;9.35;;
32138;SDS011;18644;48.700;9.210;2023-03-01T04:30:07;15.35;;;9.15;;
32138;SDS011;18644;48.700;9.210;2023-03-01T04:32:36;14.75;;;8.98;;
32138;SDS011;18644;48.700;9.210;2023-03-01T04:35:03;15.98;;;8.90;;
32138;SDS011;18644;48.700;9.210;2023-03-01T04:37:30;15.63;;;9.65;;
32138;SDS011;18644;48.700;9.210;2023-03-01T04:39:59;14.45;;;8.52;;
32138;SDS011;18644;48.700;9.210;2023-03-01T04:42:25;13.45;;;8.57;;
32138;SDS011;18644;48.700;9.210;2023-03-01T04:44:52;17.95;;;8.73;;
32138;SDS011;18644;48.700;9.210;2023-03-01T04:47:19;14.43;;;8.65;;
32138;SDS011;18644;48.700;9.210;2023-03-01T04:49:46;17.23;;;9.63;;
32138;SDS011;18644;48.700;9.210;2023-03-01T04:52:13;15.00;;;9.00;;
32138;SDS011;18644;48.700;9.210;2023-03-01T04:54:40;15.55;;;9.00;;
32138;SDS011;18644;48.700;9.210;2023-03-01T04:57:09;17.33;;;10.02;;
32138;SDS011;18644;48.700;9.210;2023-03-01T04:59:36;13.98;;;8.38;;
32138;SDS011;18644;48.700;9.210;2023-03-01T05:02:03;15.50;;;8.82;;
32138;SDS011;18644;48.700;9.210;2023-03-01T05:04:30;14.23;;;9.38;;
32138;SDS011;18644;48.700;9.210;2023-03-01T05:06:57;17.42;;;9.45;;
32138;SDS011;18644;48.700;9.210;2023-03-01T05:09:24;16.08;;;9.27;;
32138;SDS011;18644;48.700;9.210;2023-03-01T05:11:53;16.20;;;9.30;;
32138;SDS011;18644;48.700;9.210;2023-03-01T05:14:21;16.63;;;10.10;;
32138;SDS011;18644;48.700;9.210;2023-03-01T05:16:48;15.82;;;9.77;;
32138;SDS011;18644;48.700;9.210;2023-03-01T05:19:15;16.05;;;8.60;;
32138;SDS011;18644;48.700;9.210;2023-03-01T05:21:47;15.10;;;9.18;;
32138;SDS011;18644;48.700;9.210;2023-03-01T05:24:30;18.83;;;9.52;;
32138;SDS011;18644;48.700;9.210;2023-03-01T05:26:59;15.60;;;9.43;;
32138;SDS011;18644;48.700;9.210;2023-03-01T05:29:29;16.30;;;10.50;;
32138;SDS011;18644;48.700;9.210;2023-03-01T05:32:00;18.08;;;10.70;;
32138;SDS011;18644;48.700;9.210;2023-03-01T05:34:29;14.50;;;8.90;;
32138;SDS011;18644;48.700;9.210;2023-03-01T05:36:57;15.23;;;8.70;;
32138;SDS011;18644;48.700;9.210;2023-03-01T05:39:26;17.80;;;10.07;;
32138;SDS011;18644;48.700;9.210;2023-03-01T05:41:57;15.68;;;9.05;;
32138;SDS011;18644;48.700;9.210;2023-03-01T05:44:26;14.27;;;8.45;;
32138;SDS011;18644;48.700;9.210;2023-03-01T05:46:55;17.35;;;10.77;;
32138;SDS011;18644;48.700;9.210;2023-03-01T05:49:22;14.07;;;9.25;;
32138;SDS011;18644;48.700;9.210;2023-03-01T05:51:50;17.38;;;10.13;;
32138;SDS011;18644;48.700;9.210;2023-03-01T05:54:19;15.25;;;9.50;;
32138;SDS011;18644;48.700;9.210;2023-03-01T05:56:47;18.90;;;9.68;;
32138;SDS011;18644;48.700;9.210;2023-03-01T05:59:16;14.25;;;8.82;;
32138;SDS011;18644;48.700;9.210;2023-03-01T06:01:44;12.90;;;9.15;;
32138;SDS011;18644;48.700;9.210;2023-03-01T06:04:11;16.48;;;9.85;;
32138;SDS011;18644;48.700;9.210;2023-03-01T06:06:39;18.75;;;9.93;;
32138;SDS011;18644;48.700;9.210;2023-03-01T06:09:06;16.65;;;10.18;;
32138;SDS011;18644;48.700;9.210;2023-03-01T06:11:34;17.48;;;9.45;;
32138;SDS011;18644;48.700;9.210;2023-03-01T06:14:02;15.45;;;9.18;;
32138;SDS011;18644;48.700;9.210;2023-03-01T06:16:29;15.18;;;9.60;;
32138;SDS011;18644;48.700;9.210;2023-03-01T06:18:58;16.33;;;9.40;;
32138;SDS011;18644;48.700;9.210;2023-03-01T06:21:25;15.77;;;9.68;;
32138;SDS011;18644;48.700;9.210;2023-03-01T06:23:52;16.65;;;10.18;;
32138;SDS011;18644;48.700;9.210;2023-03-01T06:26:19;17.65;;;9.38;;
32138;SDS011;18644;48.700;9.210;2023-03-01T06:28:46;16.25;;;9.70;;
32138;SDS011;18644;48.700;9.210;2023-03-01T06:31:13;15.90;;;9.10;;
32138;SDS011;18644;48.700;9.210;2023-03-01T06:33:40;19.85;;;10.65;;
32138;SDS011;18644;48.700;9.210;2023-03-01T06:36:08;16.05;;;10.13;;
32138;SDS011;18644;48.700;9.210;2023-03-01T06:38:36;15.73;;;9.43;;
32138;SDS011;18644;48.700;9.210;2023-03-01T06:41:03;17.63;;;9.88;;
32138;SDS011;18644;48.700;9.210;2023-03-01T06:43:30;18.15;;;10.18;;
32138;SDS011;18644;48.700;9.210;2023-03-01T06:45:57;16.88;;;10.25;;
32138;SDS011;18644;48.700;9.210;2023-03-01T06:48:24;15.50;;;9.10;;
32138;SDS011;18644;48.700;9.210;2023-03-01T06:50:51;16.95;;;10.18;;
32138;SDS011;18644;48.700;9.210;2023-03-01T06:53:19;18.05;;;9.95;;
32138;SDS011;18644;48.700;9.210;2023-03-01T06:55:46;15.77;;;9.82;;
32138;SDS011;18644;48.700;9.210;2023-03-01T06:58:13;16.10;;;9.52;;
32138;SDS011;18644;48.700;9.210;2023-03-01T07:00:40;15.52;;;9.73;;
32138;SDS011;18644;48.700;9.210;2023-03-01T07:03:08;21.95;;;10.27;;
32138;SDS011;18644;48.700;9.210;2023-03-01T07:05:35;19.23;;;10.02;;
32138;SDS011;18644;48.700;9.210;2023-03-01T07:08:02;16.05;;;9.45;;
32138;SDS011;18644;48.700;9.210;2023-03-01T07:10:30;17.00;;;10.35;;
32138;SDS011;18644;48.700;9.210;2023-03-01T07:12:58;16.27;;;10.07;;
32138;SDS011;18644;48.700;9.210;2023-03-01T07:15:25;14.75;;;9.40;;
32138;SDS011;18644;48.700;9.210;2023-03-01T07:17:55;16.92;;;9.52;;
32138;SDS011;18644;48.700;9.210;2023-03-01T07:20:23;15.88;;;9.55;;
32138;SDS011;18644;48.700;9.210;2023-03-01T07:22:50;15.95;;;9.38;;
32138;SDS011;18644;48.700;9.210;2023-03-01T07:25:17;17.98;;;10.25;;
32138;SDS011;18644;48.700;9.210;2023-03-01T07:27:50;16.33;;;9.63;;
32138;SDS011;18644;48.700;9.210;2023-03-01T07:30:17;17.00;;;9.90;;
32138;SDS011;18644;48.700;9.210;2023-03-01T07:32:45;17.70;;;10.27;;
32138;SDS011;18644;48.700;9.210;2023-03-01T07:35:12;18.55;;;10.20;;
32138;SDS011;18644;48.700;9.210;2023-03-01T07:37:39;17.92;;;10.18;;
32138;SDS011;18644;48.700;9.210;2023-03-01T07:40:07;15.88;;;9.07;;
32138;SDS011;18644;48.700;9.210;2023-03-01T07:42:35;15.88;;;10.77;;
32138;SDS011;18644;48.700;9.210;2023-03-01T07:45:05;32.17;;;12.05;;
32138;SDS011;18644;48.700;9.210;2023-03-01T07:47:33;17.58;;;10.45;;
32138;SDS011;18644;48.700;9.210;2023-03-01T07:50:00;18.48;;;9.65;;
32138;SDS011;18644;48.700;9.210;2023-03-01T07:52:27;16.40;;;10.65;;
32138;SDS011;18644;48.700;9.210;2023-03-01T07:54:55;18.02;;;10.75;;
32138;SDS011;18644;48.700;9.210;2023-03-01T07:57:22;22.27;;;10.80;;
32138;SDS011;18644;48.700;9.210;2023-03-01T07:59:50;15.50;;;10.05;;
32138;SDS011;18644;48.700;9.210;2023-03-01T08:02:18;16.60;;;10.48;;
32138;SDS011;18644;48.700;9.210;2023-03-01T08:04:45;18.65;;;10.32;;
32138;SDS011;18644;48.700;9.210;2023-03-01T08:07:12;16.58;;;9.63;;
32138;SDS011;18644;48.700;9.210;2023-03-01T08:09:38;19.48;;;10.80;;
32138;SDS011;18644;48.700;9.210;2023-03-01T08:12:05;19.17;;;9.70;;
32138;SDS011;18644;48.700;9.210;2023-03-01T08:14:33;19.20;;;11.57;;
32138;SDS011;18644;48.700;9.210;2023-03-01T08:17:00;21.05;;;11.07;;
32138;SDS011;18644;48.700;9.210;2023-03-01T08:19:29;17.90;;;11.30;;
32138;SDS011;18644;48.700;9.210;2023-03-01T08:21:56;16.33;;;9.82;;
32138;SDS011;18644;48.700;9.210;2023-03-01T08:24:25;20.42;;;10.75;;
32138;SDS011;18644;48.700;9.210;2023-03-01T08:26:52;21.48;;;11.77;;
32138;SDS011;18644;48.700;9.210;2023-03-01T08:29:19;17.90;;;11.00;;
32138;SDS011;18644;48.700;9.210;2023-03-01T08:31:47;17.30;;;9.82;;
32138;SDS011;18644;48.700;9.210;2023-03-01T08:34:16;16.90;;;11.00;;
32138;SDS011;18644;48.700;9.210;2023-03-01T08:36:45;17.98;;;11.27;;
32138;SDS011;18644;48.700;9.210;2023-03-01T08:39:14;19.10;;;10.55;;
32138;SDS011;18644;48.700;9.210;2023-03-01T08:41:43;17.17;;;10.05;;
32138;SDS011;18644;48.700;9.210;2023-03-01T08:44:11;17.80;;;10.40;;
32138;SDS011;18644;48.700;9.210;2023-03-01T08:46:40;19.13;;;11.35;;
32138;SDS011;18644;48.700;9.210;2023-03-01T08:49:11;19.30;;;11.55;;
32138;SDS011;18644;48.700;9.210;2023-03-01T08:51:39;17.48;;;10.88;;
32138;SDS011;18644;48.700;9.210;2023-03-01T08:54:10;18.27;;;11.52;;
32138;SDS011;18644;48.700;9.210;2023-03-01T08:56:40;18.38;;;11.38;;
32138;SDS011;18644;48.700;9.210;2023-03-01T08:59:08;19.38;;;10.68;;
32138;SDS011;18644;48.700;9.210;2023-03-01T09:01:36;16.38;;;10.32;;
32138;SDS011;18644;48.700;9.210;2023-03-01T09:04:03;17.40;;;11.15;;
32138;SDS011;18644;48.700;9.210;2023-03-01T09:06:30;20.33;;;11.05;;
32138;SDS011;18644;48.700;9.210;2023-03-01T09:08:59;21.05;;;10.73;;
32138;SDS011;18644;48.700;9.210;2023-03-01T09:11:28;17.08;;;10.93;;
32138;SDS011;18644;48.700;9.210;2023-03-01T09:13:55;17.30;;;10.18;;
32138;SDS011;18644;48.700;9.210;2023-03-01T09:16:25;17.38;;;11.02;;
32138;SDS011;18644;48.700;9.210;2023-03-01T09:18:54;18.65;;;11.77;;
32138;SDS011;18644;48.700;9.210;2023-03-01T09:21:22;17.80;;;10.30;;
32138;SDS011;18644;48.700;9.210;2023-03-01T09:23:50;18.00;;;10.45;;
32138;SDS011;18644;48.700;9.210;2023-03-01T09:26:17;20.23;;;11.50;;
32138;SDS011;18644;48.700;9.210;2023-03-01T09:28:50;17.15;;;11.10;;
32138;SDS011;18644;48.700;9.210;2023-03-01T09:31:20;19.45;;;11.15;;
32138;SDS011;18644;48.700;9.210;2023-03-01T09:33:49;20.30;;;12.55;;
32138;SDS011;18644;48.700;9.210;2023-03-01T09:36:19;15.77;;;11.00;;
32138;SDS011;18644;48.700;9.210;2023-03-01T09:41:28;15.43;;;10.10;;
32138;SDS011;18644;48.700;9.210;2023-03-01T09:44:12;14.50;;;10.07;;
32138;SDS011;18644;48.700;9.210;2023-03-01T09:46:48;19.17;;;11.30;;
32138;SDS011;18644;48.700;9.210;2023-03-01T09:49:17;17.50;;;11.13;;
32138;SDS011;18644;48.700;9.210;2023-03-01T09:51:51;15.63;;;10.65;;
32138;SDS011;18644;48.700;9.210;2023-03-01T09:54:27;17.95;;;11.95;;
32138;SDS011;18644;48.700;9.210;2023-03-01T09:56:57;15.55;;;10.93;;
32138;SDS011;18644;48.700;9.210;2023-03-01T09:59:36;19.00;;;10.73;;
32138;SDS011;18644;48.700;9.210;2023-03-01T10:02:21;16.65;;;10.52;;
32138;SDS011;18644;48.700;9.210;2023-03-01T10:04:54;18.25;;;10.63;;
32138;SDS011;18644;48.700;9.210;2023-03-01T10:07:29;14.27;;;10.02;;
32138;SDS011;18644;48.700;9.210;2023-03-01T10:10:07;16.60;;;10.20;;
32138;SDS011;18644;48.700;9.210;2023-03-01T10:12:43;15.73;;;10.13;;
32138;SDS011;18644;48.700;9.210;2023-03-01T10:15:14;13.55;;;10.30;;
32138;SDS011;18644;48.700;9.210;2023-03-01T10:17:45;15.02;;;10.70;;
32138;SDS011;18644;48.700;9.210;2023-03-01T10:20:18;17.35;;;11.05;;
32138;SDS011;18644;48.700;9.210;2023-03-01T10:22:47;15.57;;;10.73;;
32138;SDS011;18644;48.700;9.210;2023-03-01T10:25:20;18.08;;;11.77;;
32138;SDS011;18644;48.700;9.210;2023-03-01T10:28:05;17.92;;;12.18;;
32138;SDS011;18644;48.700;9.210;2023-03-01T10:30:53;16.90;;;10.98;;
32138;SDS011;18644;48.700;9.210;2023-03-01T10:33:21;17.30;;;10.55;;
32138;SDS011;18644;48.700;9.210;2023-03-01T10:35:55;16.38;;;9.25;;
32138;SDS011;18644;48.700;9.210;2023-03-01T10:38:22;17.42;;;10.65;;
32138;SDS011;18644;48.700;9.210;2023-03-01T10:40:51;15.13;;;9.88;;
32138;SDS011;18644;48.700;9.210;2023-03-01T10:43:21;18.17;;;10.88;;
32138;SDS011;18644;48.700;9.210;2023-03-01T10:45:50;14.48;;;9.85;;
32138;SDS011;18644;48.700;9.210;2023-03-01T10:48:19;15.27;;;10.30;;
32138;SDS011;18644;48.700;9.210;2023-03-01T10:53:33;11.95;;;8.50;;
32138;SDS011;18644;48.700;9.210;2023-03-01T10:56:03;15.38;;;10.23;;
32138;SDS011;18644;48.700;9.210;2023-03-01T10:58:32;17.08;;;11.43;;
32138;SDS011;18644;48.700;9.210;2023-03-01T11:01:03;19.95;;;10.30;;
32138;SDS011;18644;48.700;9.210;2023-03-01T11:03:32;15.93;;;10.70;;
32138;SDS011;18644;48.700;9.210;2023-03-01T11:06:02;14.65;;;10.18;;
32138;SDS011;18644;48.700;9.210;2023-03-01T11:08:36;13.70;;;10.07;;
32138;SDS011;18644;48.700;9.210;2023-03-01T11:11:14;14.18;;;9.77;;
32138;SDS011;18644;48.700;9.210;2023-03-01T11:13:52;14.63;;;9.80;;
32138;SDS011;18644;48.700;9.210;2023-03-01T11:16:26;15.73;;;10.15;;
32138;SDS011;18644;48.700;9.210;2023-03-01T11:21:49;13.93;;;9.82;;
32138;SDS011;18644;48.700;9.210;2023-03-01T11:24:27;15.65;;;10.48;;
32138;SDS011;18644;48.700;9.210;2023-03-01T11:27:08;14.57;;;10.02;;
32138;SDS011;18644;48.700;9.210;2023-03-01T11:29:45;14.40;;;10.23;;
32138;SDS011;18644;48.700;9.210;2023-03-01T11:32:17;14.75;;;10.20;;
32138;SDS011;18644;48.700;9.210;2023-03-01T11:34:47;13.60;;;10.27;;
32138;SDS011;18644;48.700;9.210;2023-03-01T11:37:22;13.98;;;9.40;;
32138;SDS011;18644;48.700;9.210;2023-03-01T11:40:00;14.50;;;9.90;;
32138;SDS011;18644;48.700;9.210;2023-03-01T11:42:41;15.30;;;10.18;;
32138;SDS011;18644;48.700;9.210;2023-03-01T11:45:18;14.85;;;9.93;;
32138;SDS011;18644;48.700;9.210;2023-03-01T11:47:55;14.17;;;10.27;;
32138;SDS011;18644;48.700;9.210;2023-03-01T11:50:35;16.42;;;10.88;;
32138;SDS011;18644;48.700;9.210;2023-03-01T11:53:18;13.60;;;9.73;;
32138;SDS011;18644;48.700;9.210;2023-03-01T11:56:04;14.57;;;9.48;;
32138;SDS011;18644;48.700;9.210;2023-03-01T11:58:51;13.35;;;8.85;;
32138;SDS011;18644;48.700;9.210;2023-03-01T12:01:48;14.75;;;9.95;;
32138;SDS011;18644;48.700;9.210;2023-03-01T12:04:35;13.52;;;8.90;;
32138;SDS011;18644;48.700;9.210;2023-03-01T12:07:41;12.73;;;8.90;;
32138;SDS011;18644;48.700;9.210;2023-03-01T12:10:19;14.77;;;9.77;;
32138;SDS011;18644;48.700;9.210;2023-03-01T12:12:56;14.25;;;10.15;;
32138;SDS011;18644;48.700;9.210;2023-03-01T12:15:54;15.47;;;9.47;;
32138;SDS011;18644;48.700;9.210;2023-03-01T12:18:41;13.05;;;9.43;;
32138;SDS011;18644;48.700;9.210;2023-03-01T12:21:27;15.90;;;9.70;;
32138;SDS011;18644;48.700;9.210;2023-03-01T12:24:23;12.88;;;9.35;;
32138;SDS011;18644;48.700;9.210;2023-03-01T12:27:10;13.43;;;8.85;;
32138;SDS011;18644;48.700;9.210;2023-03-01T12:29:52;12.27;;;8.60;;
32138;SDS011;18644;48.700;9.210;2023-03-01T12:32:30;11.63;;;8.25;;
32138;SDS011;18644;48.700;9.210;2023-03-01T12:35:18;11.63;;;9.02;;
32138;SDS011;18644;48.700;9.210;2023-03-01T12:37:58;13.68;;;8.68;;
32138;SDS011;18644;48.700;9.210;2023-03-01T12:40:53;12.75;;;9.02;;
32138;SDS011;18644;48.700;9.210;2023-03-01T12:43:42;13.38;;;8.77;;
32138;SDS011;18644;48.700;9.210;2023-03-01T12:46:24;11.68;;;8.90;;
32138;SDS011;18644;48.700;9.210;2023-03-01T12:51:36;10.73;;;7.57;;
32138;SDS011;18644;48.700;9.210;2023-03-01T12:54:11;13.10;;;8.98;;
32138;SDS011;18644;48.700;9.210;2023-03-01T12:56:43;11.45;;;8.38;;
32138;SDS011;18644;48.700;9.210;2023-03-01T12:59:18;13.45;;;10.10;;
32138;SDS011;18644;48.700;9.210;2023-03-01T13:01:53;14.05;;;8.52;;
32138;SDS011;18644;48.700;9.210;2023-03-01T13:04:33;11.38;;;8.70;;
32138;SDS011;18644;48.700;9.210;2023-03-01T13:07:14;13.48;;;9.43;;
32138;SDS011;18644;48.700;9.210;2023-03-01T13:09:58;11.35;;;8.15;;
32138;SDS011;18644;48.700;9.210;2023-03-01T13:12:51;13.38;;;8.82;;
32138;SDS011;18644;48.700;9.210;2023-03-01T13:15:29;10.77;;;8.43;;
32138;SDS011;18644;48.700;9.210;2023-03-01T13:18:02;13.02;;;9.07;;
32138;SDS011;18644;48.700;9.210;2023-03-01T13:20:52;12.05;;;8.38;;
32138;SDS011;18644;48.700;9.210;2023-03-01T13:23:26;12.13;;;8.68;;
32138;SDS011;18644;48.700;9.210;2023-03-01T13:26:05;12.55;;;8.68;;
32138;SDS011;18644;48.700;9.210;2023-03-01T13:37:22;11.23;;;8.23;;
32138;SDS011;18644;48.700;9.210;2023-03-01T13:39:54;11.85;;;8.43;;
32138;SDS011;18644;48.700;9.210;2023-03-01T13:42:32;11.63;;;8.63;;
32138;SDS011;18644;48.700;9.210;2023-03-01T13:45:15;11.32;;;8.40;;
32138;SDS011;18644;48.700;9.210;2023-03-01T13:47:50;12.05;;;7.80;;
32138;SDS011;18644;48.700;9.210;2023-03-01T13:50:24;12.13;;;9.18;;
32138;SDS011;18644;48.700;9.210;2023-03-01T13:52:55;13.95;;;8.30;;
32138;SDS011;18644;48.700;9.210;2023-03-01T13:55:26;13.23;;;8.63;;
32138;SDS011;18644;48.700;9.210;2023-03-01T13:58:05;11.10;;;7.97;;
32138;SDS011;18644;48.700;9.210;2023-03-01T14:00:45;11.50;;;8.10;;
32138;SDS011;18644;48.700;9.210;2023-03-01T14:03:14;10.10;;;7.55;;
32138;SDS011;18644;48.700;9.210;2023-03-01T14:05:57;12.48;;;7.75;;
32138;SDS011;18644;48.700;9.210;2023-03-01T14:08:28;10.15;;;7.70;;
32138;SDS011;18644;48.700;9.210;2023-03-01T14:11:00;8.38;;;7.10;;
32138;SDS011;18644;48.700;9.210;2023-03-01T14:13:51;10.73;;;7.57;;
32138;SDS011;18644;48.700;9.210;2023-03-01T14:16:35;10.32;;;7.10;;
32138;SDS011;18644;48.700;9.210;2023-03-01T14:19:14;10.50;;;7.20;;
32138;SDS011;18644;48.700;9.210;2023-03-01T14:21:45;10.57;;;7.40;;
32138;SDS011;18644;48.700;9.210;2023-03-01T14:24:16;11.70;;;8.82;;
32138;SDS011;18644;48.700;9.210;2023-03-01T14:29:26;12.77;;;8.88;;
32138;SDS011;18644;48.700;9.210;2023-03-01T14:31:55;14.02;;;9.75;;
32138;SDS011;18644;48.700;9.210;2023-03-01T14:34:35;13.48;;;10.15;;
32138;SDS011;18644;48.700;9.210;2023-03-01T14:37:09;13.82;;;9.93;;
32138;SDS011;18644;48.700;9.210;2023-03-01T14:39:38;14.82;;;10.98;;
32138;SDS011;18644;48.700;9.210;2023-03-01T14:42:05;13.38;;;9.93;;
32138;SDS011;18644;48.700;9.210;2023-03-01T14:44:33;15.10;;;10.18;;
32138;SDS011;18644;48.700;9.210;2023-03-01T14:47:02;13.85;;;9.90;;
32138;SDS011;18644;48.700;9.210;2023-03-01T14:49:31;13.32;;;9.40;;
32138;SDS011;18644;48.700;9.210;2023-03-01T14:51:59;15.13;;;8.02;;
32138;SDS011;18644;48.700;9.210;2023-03-01T14:54:32;12.30;;;9.50;;
32138;SDS011;18644;48.700;9.210;2023-03-01T14:57:05;12.13;;;8.87;;
32138;SDS011;18644;48.700;9.210;2023-03-01T14:59:43;11.38;;;8.70;;
32138;SDS011;18644;48.700;9.210;2023-03-01T15:02:11;12.85;;;9.55;;
32138;SDS011;18644;48.700;9.210;2023-03-01T15:04:45;13.80;;;9.57;;
32138;SDS011;18644;48.700;9.210;2023-03-01T15:07:16;11.07;;;8.43;;
32138;SDS011;18644;48.700;9.210;2023-03-01T15:09:44;15.52;;;9.27;;
32138;SDS011;18644;48.700;9.210;2023-03-01T15:12:25;11.80;;;9.05;;
32138;SDS011;18644;48.700;9.210;2023-03-01T15:15:18;11.27;;;8.18;;
32138;SDS011;18644;48.700;9.210;2023-03-01T15:17:59;12.73;;;7.45;;